createdAt,value
2019-03-16T00:00:58.929Z,4.80
2019-03-16T00:01:58.945Z,6.00
2019-03-16T00:02:58.908Z,5.10
2019-03-16T00:03:58.900Z,4.90
2019-03-16T00:04:58.895Z,5.00
2019-03-16T00:05:58.880Z,5.20
2019-03-16T00:06:58.882Z,5.10
2019-03-16T00:07:58.869Z,4.10
2019-03-16T00:08:58.848Z,5.30
2019-03-16T00:09:58.841Z,5.60
2019-03-16T00:10:58.835Z,4.40
2019-03-16T00:11:58.986Z,4.40
2019-03-16T00:12:58.797Z,4.40
2019-03-16T00:13:58.792Z,5.10
2019-03-16T00:14:58.789Z,4.40
2019-03-16T00:15:58.776Z,4.00
2019-03-16T00:16:58.759Z,3.90
2019-03-16T00:17:58.790Z,4.30
2019-03-16T00:18:58.735Z,4.50
2019-03-16T00:19:58.730Z,5.00
2019-03-16T00:20:58.722Z,4.00
2019-03-16T00:21:58.706Z,5.20
2019-03-16T00:22:58.711Z,5.00
2019-03-16T00:23:58.701Z,4.90
2019-03-16T00:24:58.671Z,4.20
2019-03-16T00:25:58.656Z,5.40
2019-03-16T00:26:58.651Z,5.00
2019-03-16T00:27:58.677Z,5.60
2019-03-16T00:28:58.651Z,4.20
2019-03-16T00:29:58.615Z,4.30
2019-03-16T00:30:58.609Z,4.30
2019-03-16T00:31:58.600Z,4.50
2019-03-16T00:32:58.641Z,4.40
2019-03-16T00:33:58.578Z,4.60
2019-03-16T00:34:58.586Z,5.20
2019-03-16T00:35:58.608Z,3.80
2019-03-16T00:36:58.546Z,4.70
2019-03-16T00:37:58.585Z,5.10
2019-03-16T00:38:58.574Z,5.60
2019-03-16T00:39:58.513Z,5.20
2019-03-16T00:40:58.505Z,5.10
2019-03-16T00:41:58.492Z,4.10
2019-03-16T00:42:58.485Z,4.80
2019-03-16T00:43:58.464Z,5.00
2019-03-16T00:44:58.501Z,4.30
2019-03-16T00:45:58.445Z,4.90
2019-03-16T00:46:58.448Z,4.80
2019-03-16T00:47:58.427Z,4.60
2019-03-16T00:48:58.415Z,4.90
2019-03-16T00:49:58.431Z,5.10
2019-03-16T00:50:58.419Z,5.20
2019-03-16T00:51:58.405Z,5.60
2019-03-16T00:52:58.391Z,4.40
2019-03-16T00:53:58.393Z,5.40
2019-03-16T00:54:58.387Z,5.00
2019-03-16T00:55:58.351Z,5.00
2019-03-16T00:56:58.348Z,4.10
2019-03-16T00:57:58.329Z,3.70
2019-03-16T00:58:58.328Z,4.60
2019-03-16T00:59:58.353Z,5.20
2019-03-16T01:00:58.323Z,3.70
2019-03-16T01:01:58.292Z,3.40
2019-03-16T01:02:58.263Z,5.20
2019-03-16T01:03:58.260Z,4.50
2019-03-16T01:04:58.283Z,3.70
2019-03-16T01:05:58.307Z,3.80
2019-03-16T01:06:58.231Z,4.60
2019-03-16T01:07:58.212Z,5.30
2019-03-16T01:08:58.209Z,5.40
2019-03-16T01:09:58.215Z,4.80
2019-03-16T01:10:58.215Z,4.80
2019-03-16T01:11:58.165Z,4.50
2019-03-16T01:12:58.170Z,4.30
2019-03-16T01:13:58.172Z,4.30
2019-03-16T01:14:58.158Z,3.50
2019-03-16T01:15:58.154Z,4.40
2019-03-16T01:16:58.126Z,4.50
2019-03-16T01:17:58.106Z,5.20
2019-03-16T01:18:58.093Z,4.80
2019-03-16T01:19:58.112Z,4.80
2019-03-16T01:20:58.096Z,4.20
2019-03-16T01:21:58.096Z,4.00
2019-03-16T01:22:58.068Z,4.60
2019-03-16T01:23:58.090Z,5.50
2019-03-16T01:24:58.023Z,5.10
2019-03-16T01:25:58.030Z,4.90
2019-03-16T01:26:58.048Z,5.60
2019-03-16T01:27:58.035Z,5.10
2019-03-16T01:28:58.012Z,5.20
2019-03-16T01:29:57.975Z,4.90
2019-03-16T01:30:57.980Z,4.70
2019-03-16T01:31:57.960Z,4.40
2019-03-16T01:32:57.965Z,4.70
2019-03-16T01:33:57.939Z,5.20
2019-03-16T01:34:57.920Z,4.80
2019-03-16T01:35:57.916Z,4.90
2019-03-16T01:36:57.920Z,5.20
2019-03-16T01:37:57.903Z,5.30
2019-03-16T01:38:57.883Z,5.20
2019-03-16T01:39:57.978Z,6.10
2019-03-16T01:40:57.857Z,5.00
2019-03-16T01:41:57.841Z,4.60
2019-03-16T01:42:57.858Z,4.90
2019-03-16T01:43:57.843Z,5.80
2019-03-16T01:44:57.823Z,5.50
2019-03-16T01:45:57.802Z,4.60
2019-03-16T01:46:57.798Z,3.60
2019-03-16T01:47:57.776Z,4.10
2019-03-16T01:48:57.789Z,5.00
2019-03-16T01:49:57.777Z,6.20
2019-03-16T01:50:57.763Z,5.00
2019-03-16T01:51:57.742Z,5.00
2019-03-16T01:52:57.744Z,3.50
2019-03-16T01:53:57.718Z,5.00
2019-03-16T01:54:57.716Z,4.80
2019-03-16T01:55:57.696Z,4.60
2019-03-16T01:56:57.685Z,5.90
2019-03-16T01:57:57.699Z,4.60
2019-03-16T01:58:57.686Z,4.90
2019-03-16T01:59:57.645Z,5.30
2019-03-16T02:00:57.646Z,4.60
2019-03-16T02:01:57.632Z,5.70
2019-03-16T02:02:57.696Z,5.10
2019-03-16T02:03:57.704Z,5.20
2019-03-16T02:04:57.602Z,5.30
2019-03-16T02:05:57.595Z,4.60
2019-03-16T02:06:57.579Z,4.70
2019-03-16T02:07:57.572Z,5.20
2019-03-16T02:08:57.574Z,4.70
2019-03-16T02:09:57.551Z,4.60
2019-03-16T02:10:57.536Z,5.20
2019-03-16T02:12:00.372Z,5.90
2019-03-16T02:12:57.506Z,5.10
2019-03-16T02:13:57.524Z,5.00
2019-03-16T02:14:57.491Z,4.70
2019-03-16T02:16:10.419Z,4.60
2019-03-16T02:16:58.466Z,5.00
2019-03-16T02:17:57.456Z,5.00
2019-03-16T02:18:57.443Z,4.80
2019-03-16T02:19:57.508Z,5.30
2019-03-16T02:20:57.421Z,4.70
2019-03-16T02:21:57.411Z,4.60
2019-03-16T02:22:57.404Z,5.50
2019-03-16T02:23:57.416Z,4.80
2019-03-16T02:24:57.378Z,5.40
2019-03-16T02:25:57.409Z,4.70
2019-03-16T02:26:57.356Z,5.00
2019-03-16T02:27:57.368Z,4.70
2019-03-16T02:28:57.358Z,5.20
2019-03-16T02:29:57.407Z,5.10
2019-03-16T02:30:57.322Z,5.10
2019-03-16T02:31:57.312Z,5.40
2019-03-16T02:33:11.807Z,4.90
2019-03-16T02:33:58.340Z,4.50
2019-03-16T02:34:57.289Z,5.50
2019-03-16T02:35:57.306Z,4.40
2019-03-16T02:36:57.262Z,5.00
2019-03-16T02:37:57.279Z,5.00
2019-03-16T02:38:57.239Z,5.20
2019-03-16T02:39:57.229Z,4.60
2019-03-16T02:40:57.244Z,5.30
2019-03-16T02:41:57.206Z,6.10
2019-03-16T02:42:57.213Z,5.30
2019-03-16T02:43:57.210Z,4.70
2019-03-16T02:44:57.196Z,5.60
2019-03-16T02:45:57.166Z,4.30
2019-03-16T02:46:57.174Z,5.30
2019-03-16T02:47:57.142Z,5.10
2019-03-16T02:48:57.131Z,4.80
2019-03-16T02:49:57.144Z,5.00
2019-03-16T02:50:57.112Z,5.70
2019-03-16T02:51:57.088Z,5.90
2019-03-16T02:52:57.127Z,4.80
2019-03-16T02:53:57.073Z,4.30
2019-03-16T02:54:57.124Z,5.60
2019-03-16T02:55:57.093Z,6.00
2019-03-16T02:56:57.047Z,5.60
2019-03-16T02:57:57.098Z,5.00
2019-03-16T02:58:57.035Z,5.80
2019-03-16T02:59:57.013Z,3.20
2019-03-16T03:00:57.008Z,4.90
2019-03-16T03:01:56.988Z,5.10
2019-03-16T03:02:56.988Z,4.10
2019-03-16T03:03:56.981Z,5.30
2019-03-16T03:04:56.986Z,5.20
2019-03-16T03:05:56.941Z,4.40
2019-03-16T03:06:56.944Z,5.50
2019-03-16T03:07:56.922Z,5.80
2019-03-16T03:08:56.968Z,5.20
2019-03-16T03:09:56.933Z,4.70
2019-03-16T03:10:56.919Z,4.70
2019-03-16T03:11:56.922Z,5.30
2019-03-16T03:12:56.882Z,5.00
2019-03-16T03:13:56.881Z,6.20
2019-03-16T03:14:56.843Z,5.50
2019-03-16T03:15:56.849Z,4.30
2019-03-16T03:16:56.827Z,4.30
2019-03-16T03:17:56.814Z,5.10
2019-03-16T03:18:56.827Z,4.90
2019-03-16T03:19:56.789Z,4.40
2019-03-16T03:20:56.784Z,5.20
2019-03-16T03:21:56.788Z,5.50
2019-03-16T03:22:56.756Z,5.80
2019-03-16T03:23:56.756Z,5.50
2019-03-16T03:24:56.765Z,3.70
2019-03-16T03:25:56.729Z,5.00
2019-03-16T03:26:56.726Z,5.60
2019-03-16T03:27:56.719Z,5.10
2019-03-16T03:28:56.719Z,5.70
2019-03-16T03:29:57.571Z,4.90
2019-03-16T03:30:56.763Z,5.20
2019-03-16T03:31:56.662Z,5.00
2019-03-16T03:32:56.664Z,6.60
2019-03-16T03:34:01.047Z,5.20
2019-03-16T03:34:57.642Z,5.90
2019-03-16T03:35:56.630Z,5.60
2019-03-16T03:36:56.638Z,5.90
2019-03-16T03:37:56.607Z,5.10
2019-03-16T03:38:56.591Z,5.60
2019-03-16T03:39:56.610Z,5.40
2019-03-16T03:41:01.222Z,5.90
2019-03-16T03:41:57.558Z,5.50
2019-03-16T03:42:56.542Z,5.50
2019-03-16T03:43:56.562Z,5.60
2019-03-16T03:44:56.525Z,5.10
2019-03-16T03:45:56.534Z,6.10
2019-03-16T03:46:56.496Z,5.40
2019-03-16T03:47:56.512Z,5.40
2019-03-16T03:48:56.475Z,5.50
2019-03-16T03:49:56.473Z,5.50
2019-03-16T03:50:56.458Z,5.20
2019-03-16T03:51:56.480Z,5.30
2019-03-16T03:52:56.454Z,5.10
2019-03-16T03:53:56.454Z,5.20
2019-03-16T03:54:56.428Z,4.30
2019-03-16T03:55:56.408Z,5.50
2019-03-16T03:56:56.404Z,6.10
2019-03-16T03:57:56.402Z,6.10
2019-03-16T03:58:56.384Z,5.10
2019-03-16T03:59:56.373Z,5.00
2019-03-16T04:00:56.359Z,5.10
2019-03-16T04:01:56.356Z,5.30
2019-03-16T04:02:56.359Z,5.10
2019-03-16T04:04:13.773Z,5.20
2019-03-16T04:04:57.340Z,5.30
2019-03-16T04:05:56.302Z,4.40
2019-03-16T04:06:56.285Z,5.90
2019-03-16T04:07:56.286Z,5.60
2019-03-16T04:08:56.376Z,6.20
2019-03-16T04:09:56.285Z,6.10
2019-03-16T04:10:56.242Z,5.10
2019-03-16T04:11:56.246Z,5.20
2019-03-16T04:12:56.217Z,4.90
2019-03-16T04:13:56.211Z,5.90
2019-03-16T04:14:56.227Z,5.20
2019-03-16T04:15:56.265Z,5.40
2019-03-16T04:16:56.190Z,5.10
2019-03-16T04:17:56.174Z,5.10
2019-03-16T04:18:56.156Z,6.40
2019-03-16T04:19:56.145Z,5.40
2019-03-16T04:20:56.165Z,5.60
2019-03-16T04:21:56.135Z,4.80
2019-03-16T04:22:56.124Z,4.80
2019-03-16T04:23:56.110Z,4.80
2019-03-16T04:24:56.085Z,5.70
2019-03-16T04:25:56.103Z,5.80
2019-03-16T04:26:56.149Z,5.50
2019-03-16T04:27:56.063Z,5.20
2019-03-16T04:28:56.047Z,5.70
2019-03-16T04:29:56.058Z,5.10
2019-03-16T04:30:56.028Z,5.90
2019-03-16T04:31:56.034Z,5.20
2019-03-16T04:32:56.041Z,5.60
2019-03-16T04:33:56.000Z,4.50
2019-03-16T04:34:56.008Z,5.10
2019-03-16T04:35:55.986Z,4.80
2019-03-16T04:36:55.965Z,5.60
2019-03-16T04:37:55.969Z,5.20
2019-03-16T04:38:55.941Z,5.00
2019-03-16T04:39:55.933Z,5.20
2019-03-16T04:40:55.924Z,5.80
2019-03-16T04:41:55.942Z,5.30
2019-03-16T04:42:55.896Z,5.50
2019-03-16T04:43:55.904Z,6.20
2019-03-16T04:44:55.879Z,5.30
2019-03-16T04:45:55.872Z,5.30
2019-03-16T04:46:55.860Z,5.80
2019-03-16T04:47:55.869Z,5.10
2019-03-16T04:48:55.837Z,5.30
2019-03-16T04:49:55.841Z,5.00
2019-03-16T04:50:55.811Z,5.20
2019-03-16T04:51:55.808Z,5.20
2019-03-16T04:52:55.800Z,5.30
2019-03-16T04:53:55.804Z,5.00
2019-03-16T04:54:55.777Z,4.90
2019-03-16T04:55:55.766Z,5.70
2019-03-16T04:56:55.755Z,5.00
2019-03-16T04:57:55.777Z,5.90
2019-03-16T04:58:55.738Z,5.70
2019-03-16T04:59:55.746Z,5.10
2019-03-16T05:00:55.706Z,4.60
2019-03-16T05:01:55.698Z,5.40
2019-03-16T05:02:55.684Z,5.00
2019-03-16T05:03:55.694Z,4.80
2019-03-16T05:04:55.669Z,5.50
2019-03-16T05:05:55.678Z,4.60
2019-03-16T05:06:55.683Z,5.40
2019-03-16T05:07:55.649Z,5.40
2019-03-16T05:08:55.623Z,5.20
2019-03-16T05:09:55.607Z,4.90
2019-03-16T05:10:55.707Z,5.60
2019-03-16T05:11:55.592Z,4.90
2019-03-16T05:12:55.583Z,5.10
2019-03-16T05:13:55.596Z,5.20
2019-03-16T05:14:55.556Z,5.00
2019-03-16T05:15:55.567Z,5.00
2019-03-16T05:16:55.557Z,5.10
2019-03-16T05:17:55.533Z,5.00
2019-03-16T05:18:55.560Z,5.30
2019-03-16T05:19:55.509Z,6.40
2019-03-16T05:20:55.531Z,6.00
2019-03-16T05:21:55.478Z,5.00
2019-03-16T05:22:55.539Z,5.00
2019-03-16T05:23:55.454Z,5.20
2019-03-16T05:24:55.469Z,5.40
2019-03-16T05:25:55.457Z,5.60
2019-03-16T05:26:55.443Z,6.50
2019-03-16T05:27:55.419Z,5.70
2019-03-16T05:28:55.430Z,5.00
2019-03-16T05:29:55.405Z,4.70
2019-03-16T05:30:55.391Z,5.40
2019-03-16T05:31:55.388Z,5.70
2019-03-16T05:32:55.386Z,4.70
2019-03-16T05:33:55.351Z,4.90
2019-03-16T05:34:56.758Z,5.60
2019-03-16T05:35:55.331Z,5.20
2019-03-16T05:36:56.234Z,5.30
2019-03-16T05:37:55.334Z,5.50
2019-03-16T05:38:55.291Z,4.60
2019-03-16T05:39:55.295Z,4.50
2019-03-16T05:40:55.313Z,5.00
2019-03-16T05:41:55.297Z,5.20
2019-03-16T05:42:55.264Z,5.10
2019-03-16T05:43:55.284Z,5.10
2019-03-16T05:44:55.232Z,5.10
2019-03-16T05:45:55.259Z,5.30
2019-03-16T05:46:55.268Z,4.80
2019-03-16T05:47:55.221Z,4.90
2019-03-16T05:48:55.211Z,5.60
2019-03-16T05:49:55.207Z,5.20
2019-03-16T05:50:57.494Z,5.00
2019-03-16T05:51:55.171Z,5.10
2019-03-16T05:52:55.187Z,5.00
2019-03-16T05:53:55.146Z,5.20
2019-03-16T05:54:55.152Z,4.50
2019-03-16T05:55:55.149Z,5.00
2019-03-16T05:56:55.105Z,5.00
2019-03-16T05:57:55.128Z,5.30
2019-03-16T05:58:55.213Z,5.10
2019-03-16T05:59:55.093Z,4.90
2019-03-16T06:00:55.085Z,5.10
2019-03-16T06:01:55.068Z,4.80
2019-03-16T06:02:55.047Z,5.60
2019-03-16T06:03:55.094Z,4.90
2019-03-16T06:04:55.019Z,5.50
2019-03-16T06:05:55.055Z,4.90
2019-03-16T06:06:55.037Z,4.60
2019-03-16T06:07:54.991Z,4.80
2019-03-16T06:08:54.989Z,4.70
2019-03-16T06:09:55.011Z,5.00
2019-03-16T06:10:54.958Z,5.90
2019-03-16T06:11:54.943Z,5.10
2019-03-16T06:12:54.938Z,4.90
2019-03-16T06:13:54.918Z,4.80
2019-03-16T06:14:54.951Z,5.00
2019-03-16T06:15:54.953Z,5.40
2019-03-16T06:16:54.996Z,4.90
2019-03-16T06:17:54.891Z,4.90
2019-03-16T06:18:54.874Z,4.70
2019-03-16T06:19:54.858Z,5.10
2019-03-16T06:20:54.846Z,4.90
2019-03-16T06:21:54.852Z,4.70
2019-03-16T06:22:54.842Z,4.30
2019-03-16T06:23:54.821Z,4.50
2019-03-16T06:24:54.803Z,4.40
2019-03-16T06:25:54.811Z,5.10
2019-03-16T06:26:54.821Z,4.90
2019-03-16T06:27:54.777Z,4.60
2019-03-16T06:28:54.764Z,4.50
2019-03-16T06:29:54.766Z,4.40
2019-03-16T06:30:54.742Z,5.10
2019-03-16T06:31:54.758Z,5.00
2019-03-16T06:32:54.716Z,4.20
2019-03-16T06:33:54.742Z,5.20
2019-03-16T06:34:54.706Z,4.20
2019-03-16T06:35:54.692Z,4.60
2019-03-16T06:36:54.676Z,4.50
2019-03-16T06:37:54.691Z,5.30
2019-03-16T06:38:54.651Z,4.80
2019-03-16T06:39:54.646Z,4.60
2019-03-16T06:40:54.636Z,4.30
2019-03-16T06:41:54.638Z,4.60
2019-03-16T06:42:54.667Z,4.80
2019-03-16T06:43:54.595Z,5.20
2019-03-16T06:44:54.595Z,4.60
2019-03-16T06:45:54.606Z,5.60
2019-03-16T06:46:54.566Z,4.20
2019-03-16T06:47:54.996Z,5.00
2019-03-16T06:48:54.574Z,3.90
2019-03-16T06:49:54.572Z,4.30
2019-03-16T06:50:54.533Z,4.80
2019-03-16T06:51:54.513Z,4.70
2019-03-16T06:52:54.509Z,5.50
2019-03-16T06:53:54.508Z,4.20
2019-03-16T06:54:54.523Z,4.60
2019-03-16T06:55:54.517Z,4.40
2019-03-16T06:56:54.465Z,4.30
2019-03-16T06:57:54.479Z,4.30
2019-03-16T06:58:54.448Z,4.40
2019-03-16T06:59:54.437Z,5.00
2019-03-16T07:00:54.445Z,4.90
2019-03-16T07:01:54.492Z,5.00
2019-03-16T07:02:54.446Z,4.30
2019-03-16T07:03:54.395Z,4.30
2019-03-16T07:04:54.383Z,4.40
2019-03-16T07:05:54.446Z,4.10
2019-03-16T07:06:54.361Z,3.90
2019-03-16T07:07:54.351Z,4.10
2019-03-16T07:08:54.349Z,3.80
2019-03-16T07:09:54.339Z,4.20
2019-03-16T07:10:54.331Z,5.10
2019-03-16T07:11:54.367Z,3.90
2019-03-16T07:12:54.299Z,4.40
2019-03-16T07:13:54.286Z,4.30
2019-03-16T07:14:54.272Z,4.80
2019-03-16T07:15:54.271Z,4.70
2019-03-16T07:17:02.008Z,4.60
2019-03-16T07:17:55.306Z,4.20
2019-03-16T07:18:59.033Z,4.50
2019-03-16T07:19:55.219Z,5.30
2019-03-16T07:20:54.206Z,4.30
2019-03-16T07:21:54.239Z,4.80
2019-03-16T07:22:54.208Z,3.20
2019-03-16T07:23:54.187Z,4.30
2019-03-16T07:24:54.167Z,4.60
2019-03-16T07:25:54.154Z,3.90
2019-03-16T07:26:54.153Z,3.80
2019-03-16T07:27:54.175Z,4.30
2019-03-16T07:28:54.120Z,4.00
2019-03-16T07:29:54.106Z,4.30
2019-03-16T07:30:54.096Z,4.40
2019-03-16T07:31:54.098Z,4.40
2019-03-16T07:32:54.080Z,3.60
2019-03-16T07:33:54.085Z,4.40
2019-03-16T07:34:54.074Z,4.40
2019-03-16T07:35:54.047Z,3.90
2019-03-16T07:36:54.049Z,4.10
2019-03-16T07:37:54.037Z,4.10
2019-03-16T07:38:54.025Z,4.30
2019-03-16T07:39:54.029Z,3.90
2019-03-16T07:40:54.000Z,4.00
2019-03-16T07:41:53.986Z,4.10
2019-03-16T07:42:53.973Z,4.40
2019-03-16T07:43:53.971Z,4.40
2019-03-16T07:45:07.276Z,3.80
2019-03-16T07:45:54.977Z,4.30
2019-03-16T07:46:53.924Z,3.70
2019-03-16T07:47:53.914Z,4.50
2019-03-16T07:48:53.905Z,3.50
2019-03-16T07:49:53.907Z,4.10
2019-03-16T07:50:53.877Z,4.40
2019-03-16T07:51:54.702Z,4.50
2019-03-16T07:52:53.878Z,3.80
2019-03-16T07:53:53.879Z,4.50
2019-03-16T07:54:53.838Z,3.80
2019-03-16T07:55:53.833Z,4.10
2019-03-16T07:56:53.830Z,5.30
2019-03-16T07:57:53.828Z,3.90
2019-03-16T07:58:53.799Z,4.50
2019-03-16T07:59:53.798Z,4.50
2019-03-16T08:00:53.769Z,4.30
2019-03-16T08:01:53.802Z,4.30
2019-03-16T08:02:53.767Z,4.20
2019-03-16T08:03:53.794Z,5.00
2019-03-16T08:04:53.734Z,4.30
2019-03-16T08:05:53.751Z,4.30
2019-03-16T08:06:53.729Z,4.30
2019-03-16T08:07:53.698Z,4.30
2019-03-16T08:08:53.701Z,4.80
2019-03-16T08:09:53.688Z,4.60
2019-03-16T08:10:53.704Z,4.00
2019-03-16T08:11:53.670Z,5.10
2019-03-16T08:12:53.678Z,4.40
2019-03-16T08:13:53.751Z,4.50
2019-03-16T08:14:53.624Z,4.90
2019-03-16T08:15:53.605Z,5.20
2019-03-16T08:16:53.601Z,4.20
2019-03-16T08:17:53.594Z,4.60
2019-03-16T08:18:53.609Z,4.30
2019-03-16T08:19:53.595Z,4.40
2019-03-16T08:20:53.566Z,3.90
2019-03-16T08:21:53.561Z,4.40
2019-03-16T08:22:53.546Z,4.10
2019-03-16T08:23:53.884Z,3.80
2019-03-16T08:24:53.544Z,4.20
2019-03-16T08:25:53.501Z,4.50
2019-03-16T08:26:53.510Z,4.50
2019-03-16T08:27:54.811Z,4.80
2019-03-16T08:28:53.474Z,4.90
2019-03-16T08:29:53.451Z,4.80
2019-03-16T08:30:56.618Z,4.20
2019-03-16T08:31:53.448Z,4.10
2019-03-16T08:32:53.441Z,4.00
2019-03-16T08:33:53.442Z,3.60
2019-03-16T08:34:53.416Z,4.30
2019-03-16T08:35:53.405Z,4.80
2019-03-16T08:36:53.420Z,4.20
2019-03-16T08:37:53.369Z,5.00
2019-03-16T08:38:53.387Z,4.30
2019-03-16T08:39:53.365Z,4.10
2019-03-16T08:40:53.388Z,4.30
2019-03-16T08:41:53.332Z,4.80
2019-03-16T08:42:53.354Z,4.90
2019-03-16T08:43:53.308Z,4.20
2019-03-16T08:44:53.287Z,4.60
2019-03-16T08:45:53.304Z,4.30
2019-03-16T08:46:53.272Z,3.90
2019-03-16T08:47:54.103Z,4.80
2019-03-16T08:48:53.278Z,4.40
2019-03-16T08:49:53.250Z,4.00
2019-03-16T08:50:53.230Z,4.50
2019-03-16T08:51:53.213Z,4.10
2019-03-16T08:52:53.935Z,4.00
2019-03-16T08:53:53.242Z,4.20
2019-03-16T08:54:53.179Z,4.50
2019-03-16T08:55:53.231Z,4.40
2019-03-16T08:56:53.160Z,3.80
2019-03-16T08:58:05.386Z,4.40
2019-03-16T08:58:54.158Z,4.30
2019-03-16T08:59:53.161Z,3.90
2019-03-16T09:00:53.113Z,4.60
2019-03-16T09:01:53.102Z,3.90
2019-03-16T09:02:53.129Z,4.70
2019-03-16T09:03:53.102Z,4.30
2019-03-16T09:04:53.178Z,5.20
2019-03-16T09:05:53.063Z,4.00
2019-03-16T09:06:53.177Z,4.70
2019-03-16T09:07:53.062Z,3.90
2019-03-16T09:08:53.108Z,3.90
2019-03-16T09:09:53.601Z,4.20
2019-03-16T09:10:53.028Z,4.60
2019-03-16T09:11:52.996Z,4.00
2019-03-16T09:12:55.323Z,4.60
2019-03-16T09:13:52.996Z,3.90
2019-03-16T09:14:52.956Z,3.50
2019-03-16T09:15:52.984Z,4.30
2019-03-16T09:16:52.962Z,4.40
2019-03-16T09:17:52.962Z,3.80
2019-03-16T09:18:52.933Z,3.90
2019-03-16T09:19:52.910Z,3.70
2019-03-16T09:20:52.938Z,3.90
2019-03-16T09:21:52.914Z,4.10
2019-03-16T09:22:52.868Z,3.90
2019-03-16T09:23:52.861Z,3.80
2019-03-16T09:24:52.923Z,3.00
2019-03-16T09:25:52.853Z,3.30
2019-03-16T09:26:53.155Z,3.40
2019-03-16T09:27:52.820Z,3.70
2019-03-16T09:28:59.998Z,3.40
2019-03-16T09:29:53.813Z,3.90
2019-03-16T09:30:52.790Z,3.90
2019-03-16T09:31:52.770Z,3.40
2019-03-16T09:32:52.788Z,4.00
2019-03-16T09:33:52.821Z,4.10
2019-03-16T09:34:52.740Z,3.90
2019-03-16T09:35:52.760Z,4.30
2019-03-16T09:36:52.773Z,4.70
2019-03-16T09:37:52.756Z,4.10
2019-03-16T09:38:52.696Z,4.70
2019-03-16T09:39:52.697Z,4.40
2019-03-16T09:40:52.673Z,5.00
2019-03-16T09:41:52.699Z,4.40
2019-03-16T09:42:52.657Z,4.10
2019-03-16T09:43:52.635Z,3.90
2019-03-16T09:44:52.645Z,5.10
2019-03-16T09:45:52.616Z,4.30
2019-03-16T09:46:52.638Z,4.10
2019-03-16T09:47:52.615Z,4.10
2019-03-16T09:48:52.601Z,3.70
2019-03-16T09:49:52.580Z,3.30
2019-03-16T09:50:52.576Z,3.30
2019-03-16T09:51:52.549Z,3.80
2019-03-16T09:52:52.573Z,3.90
2019-03-16T09:53:52.526Z,4.20
2019-03-16T09:54:52.538Z,3.40
2019-03-16T09:55:52.510Z,3.90
2019-03-16T09:57:01.043Z,3.60
2019-03-16T09:57:53.513Z,3.90
2019-03-16T09:58:52.493Z,4.00
2019-03-16T09:59:52.482Z,3.50
2019-03-16T10:00:52.450Z,3.10
2019-03-16T10:01:52.447Z,3.40
2019-03-16T10:02:52.463Z,3.60
2019-03-16T10:03:52.469Z,3.50
2019-03-16T10:04:52.423Z,3.60
2019-03-16T10:05:52.432Z,3.80
2019-03-16T10:06:52.392Z,3.80
2019-03-16T10:07:52.395Z,4.00
2019-03-16T10:08:52.369Z,4.40
2019-03-16T10:09:52.401Z,4.20
2019-03-16T10:10:52.371Z,3.80
2019-03-16T10:11:52.460Z,4.60
2019-03-16T10:12:52.320Z,3.90
2019-03-16T10:13:52.311Z,4.80
2019-03-16T10:14:52.316Z,5.30
2019-03-16T10:15:52.316Z,4.90
2019-03-16T10:16:52.327Z,5.00
2019-03-16T10:17:52.340Z,5.40
2019-03-16T10:18:52.264Z,5.50
2019-03-16T10:19:52.255Z,4.70
2019-03-16T10:20:52.245Z,5.30
2019-03-16T10:21:52.266Z,4.80
2019-03-16T10:22:52.220Z,5.20
2019-03-16T10:23:52.264Z,4.80
2019-03-16T10:24:52.200Z,5.00
2019-03-16T10:25:52.179Z,4.70
2019-03-16T10:26:52.180Z,4.60
2019-03-16T10:27:52.197Z,4.70
2019-03-16T10:28:52.151Z,4.70
2019-03-16T10:29:52.142Z,4.80
2019-03-16T10:30:53.236Z,4.60
2019-03-16T10:31:52.133Z,4.40
2019-03-16T10:32:52.151Z,3.90
2019-03-16T10:33:52.130Z,4.20
2019-03-16T10:34:52.083Z,3.80
2019-03-16T10:35:52.085Z,4.30
2019-03-16T10:36:52.058Z,3.50
2019-03-16T10:37:52.059Z,3.50
2019-03-16T10:38:52.083Z,3.70
2019-03-16T10:39:52.037Z,3.80
2019-03-16T10:40:52.455Z,3.80
2019-03-16T10:41:52.013Z,4.10
2019-03-16T10:42:51.996Z,4.00
2019-03-16T10:43:52.007Z,4.40
2019-03-16T10:44:51.992Z,4.00
2019-03-16T10:45:51.961Z,3.80
2019-03-16T10:46:51.965Z,4.00
2019-03-16T10:47:51.945Z,3.70
2019-03-16T10:48:51.954Z,4.60
2019-03-16T10:49:51.952Z,4.20
2019-03-16T10:50:51.930Z,4.00
2019-03-16T10:51:51.916Z,4.50
2019-03-16T10:52:51.896Z,5.30
2019-03-16T10:53:51.877Z,4.90
2019-03-16T10:54:51.910Z,4.50
2019-03-16T10:55:51.866Z,4.80
2019-03-16T10:56:51.849Z,5.40
2019-03-16T10:57:51.830Z,5.00
2019-03-16T10:58:56.491Z,4.90
2019-03-16T10:59:52.842Z,5.20
2019-03-16T11:00:51.792Z,5.20
2019-03-16T11:01:51.809Z,4.70
2019-03-16T11:02:51.805Z,4.50
2019-03-16T11:03:51.773Z,4.50
2019-03-16T11:04:51.759Z,4.90
2019-03-16T11:05:51.756Z,4.50
2019-03-16T11:06:51.744Z,4.30
2019-03-16T11:07:51.723Z,5.10
2019-03-16T11:08:51.713Z,4.80
2019-03-16T11:09:51.693Z,5.30
2019-03-16T11:10:51.711Z,5.00
2019-03-16T11:11:51.677Z,4.20
2019-03-16T11:12:51.670Z,4.00
2019-03-16T11:13:51.686Z,3.30
2019-03-16T11:14:51.644Z,3.70
2019-03-16T11:15:51.640Z,3.20
2019-03-16T11:16:51.675Z,4.00
2019-03-16T11:17:51.615Z,2.90
2019-03-16T11:18:51.608Z,3.30
2019-03-16T11:19:51.682Z,3.60
2019-03-16T11:20:51.598Z,3.00
2019-03-16T11:21:51.578Z,2.50
2019-03-16T11:22:51.683Z,2.80
2019-03-16T11:23:51.541Z,3.20
2019-03-16T11:24:51.538Z,3.30
2019-03-16T11:25:51.524Z,3.30
2019-03-16T11:26:51.544Z,3.50
2019-03-16T11:27:51.555Z,3.70
2019-03-16T11:28:51.502Z,4.50
2019-03-16T11:29:51.478Z,3.70
2019-03-16T11:30:51.478Z,4.10
2019-03-16T11:31:51.482Z,4.10
2019-03-16T11:32:51.454Z,4.40
2019-03-16T11:33:51.433Z,4.30
2019-03-16T11:34:51.440Z,4.40
2019-03-16T11:35:51.409Z,5.10
2019-03-16T11:36:51.395Z,11.40
2019-03-16T11:37:51.426Z,10.90
2019-03-16T11:38:51.410Z,10.70
2019-03-16T11:39:51.370Z,9.30
2019-03-16T11:40:51.355Z,7.90
2019-03-16T11:41:51.366Z,7.00
2019-03-16T11:42:51.393Z,7.30
2019-03-16T11:43:51.452Z,6.40
2019-03-16T11:44:51.321Z,6.50
2019-03-16T11:45:51.335Z,5.60
2019-03-16T11:46:51.319Z,5.30
2019-03-16T11:47:51.296Z,4.90
2019-03-16T11:48:51.270Z,5.40
2019-03-16T11:49:51.299Z,5.80
2019-03-16T11:50:51.252Z,4.70
2019-03-16T11:51:51.245Z,3.30
2019-03-16T11:52:51.433Z,3.40
2019-03-16T11:53:51.226Z,3.30
2019-03-16T11:54:51.238Z,3.30
2019-03-16T11:55:51.194Z,2.60
2019-03-16T11:56:51.174Z,3.10
2019-03-16T11:57:51.177Z,2.70
2019-03-16T11:58:51.166Z,2.90
2019-03-16T11:59:51.166Z,3.60
2019-03-16T12:00:51.168Z,3.40
2019-03-16T12:01:51.127Z,3.40
2019-03-16T12:02:52.868Z,3.20
2019-03-16T12:03:51.115Z,3.90
2019-03-16T12:04:51.105Z,4.30
2019-03-16T12:05:51.108Z,3.80
2019-03-16T12:06:51.067Z,4.30
2019-03-16T12:07:51.052Z,4.80
2019-03-16T12:08:51.104Z,5.50
2019-03-16T12:09:51.043Z,5.90
2019-03-16T12:10:51.038Z,5.20
2019-03-16T12:11:51.043Z,4.10
2019-03-16T12:12:51.008Z,3.60
2019-03-16T12:13:50.986Z,4.60
2019-03-16T12:14:50.977Z,4.50
2019-03-16T12:15:50.968Z,4.60
2019-03-16T12:16:50.962Z,4.50
2019-03-16T12:17:50.987Z,7.60
2019-03-16T12:18:50.939Z,6.30
2019-03-16T12:19:50.996Z,9.50
2019-03-16T12:20:50.910Z,10.10
2019-03-16T12:21:50.907Z,8.20
2019-03-16T12:22:50.919Z,5.50
2019-03-16T12:23:50.884Z,3.40
2019-03-16T12:24:50.873Z,3.30
2019-03-16T12:25:50.863Z,3.70
2019-03-16T12:26:50.845Z,3.90
2019-03-16T12:27:50.835Z,4.20
2019-03-16T12:28:50.875Z,4.00
2019-03-16T12:29:50.812Z,3.30
2019-03-16T12:30:50.807Z,4.20
2019-03-16T12:31:50.788Z,4.60
2019-03-16T12:32:50.828Z,5.70
2019-03-16T12:33:50.776Z,3.40
2019-03-16T12:34:50.787Z,2.90
2019-03-16T12:35:50.743Z,3.50
2019-03-16T12:36:50.737Z,4.50
2019-03-16T12:37:50.734Z,4.30
2019-03-16T12:38:50.712Z,4.70
2019-03-16T12:39:50.717Z,4.90
2019-03-16T12:40:50.742Z,4.30
2019-03-16T12:41:50.728Z,4.40
2019-03-16T12:42:50.688Z,3.50
2019-03-16T12:43:50.662Z,3.10
2019-03-16T12:44:50.655Z,3.30
2019-03-16T12:45:50.659Z,2.80
2019-03-16T12:46:50.647Z,2.80
2019-03-16T12:47:50.618Z,2.90
2019-03-16T12:48:50.630Z,3.10
2019-03-16T12:49:50.592Z,3.10
2019-03-16T12:50:50.591Z,3.00
2019-03-16T12:51:50.602Z,3.30
2019-03-16T12:52:50.559Z,3.10
2019-03-16T12:53:50.549Z,3.40
2019-03-16T12:54:50.545Z,3.10
2019-03-16T12:55:50.552Z,2.80
2019-03-16T12:56:50.577Z,3.20
2019-03-16T12:57:50.513Z,3.50
2019-03-16T12:58:50.521Z,3.10
2019-03-16T12:59:50.490Z,2.90
2019-03-16T13:00:50.470Z,2.70
2019-03-16T13:01:50.535Z,3.00
2019-03-16T13:02:50.474Z,3.20
2019-03-16T13:03:50.579Z,2.80
2019-03-16T13:04:50.426Z,2.60
2019-03-16T13:05:50.416Z,5.40
2019-03-16T13:06:50.407Z,4.00
2019-03-16T13:07:50.466Z,3.00
2019-03-16T13:08:50.493Z,3.20
2019-03-16T13:09:50.376Z,2.60
2019-03-16T13:10:50.448Z,2.60
2019-03-16T13:11:51.122Z,2.30
2019-03-16T13:12:50.400Z,2.50
2019-03-16T13:13:50.379Z,2.60
2019-03-16T13:14:50.337Z,2.50
2019-03-16T13:15:50.336Z,4.60
2019-03-16T13:16:50.316Z,3.80
2019-03-16T13:17:51.119Z,3.00
2019-03-16T13:18:50.310Z,2.40